Airfield :
LOGIN :

Register | Disclaimer

   EN    FR    IT 

 










Legend :    VFR   Marginal VFR   IFR   Intensive IFR   Very Intensive IFR
Visi :
Ceiling :
>= 8 km
>= 3000ft
5 to 8 km
1000 to 3000 ft
1500m to 5 km
500 to 1000 ft
800 to 1500m
200 to 500 ft
< 800m
< 200 ft
Symbols :   Thunderstorms  Fog  Heavy snow  Heavy precipitations  Wind > 20 kt
SIGMETs :     Misc.  Thunderstorms  Icing  Turbulence  Mountain Waves  Volcanic Ashes






- Airport Elevation : 25 ft
- IATA code : TPS


LICT - Vincenzo Florio Trapani

CURRENT METAR :
  • 301355Z 36012KT 9999 SCT025 18/15 Q1019 RMK SCT VIS MIN 9999 WIND THR13 01017KT BLU

EXPIRED METARs :
  • 301255Z 01016KT 9999 SCT022 18/14 Q1019 RMK SCT VIS MIN 9999 WIND THR13 03017KT BLU
  • 301155Z 36013KT 9999 SCT022 18/14 Q1019 RMK SCT VIS MIN 9999 WIND THR13 02015KT BLU

TAF TAF LICT
Valid from the 30 at 15:00 until the 01 at 00:00 UTC


301400Z 3015/3024 01010KT 9999 FEW020
BECMG 3018/3020 VRB04KT



MET'MAP, your aeronautical weather chart ! - Copyright ORBIFLY December 2007 - Disclaimer

ORBIFLY MET'MAP TEAM :

Programming & Development : Alexandra Zaïnal
Concept & original design : Baudouin d'Aumeries
Assistance for programming : Marc-Olivier Méhu
Technical & hardware support : Manuel Goepfert

Contact : metmap@orbifly.com




SOURCES & CREDITS :

   NOAA